Time;durP1;ratioP1;P1;durP2;ratioP2;P2;SDS_P1;SDS_P2;PMS_P1;PMS_P2;Temp;Humidity;BMP_temperature;BMP_pressure;BME280_temperature;BME280_humidity;BME280_pressure;Samples;Min_cycle;Max_cycle;Signal;HPM_P1;HPM_P2
2022/07/22 00:00:31;;;;;;;14.73;4.70;;;;;;;13.45;100.00;102178.28;5266867;28;20150;-71
2022/07/22 00:03:02;;;;;;;19.08;4.30;;;;;;;13.42;100.00;102187.53;5258296;28;20021;-70
2022/07/22 00:05:33;;;;;;;18.92;4.45;;;;;;;13.36;100.00;102181.91;5247525;28;20028;-70
2022/07/22 00:08:03;;;;;;;15.07;4.60;;;;;;;13.30;100.00;102193.28;5253046;28;20586;-71
2022/07/22 00:10:34;;;;;;;21.10;5.50;;;;;;;13.23;100.00;102186.81;5265608;28;20083;-71
2022/07/22 00:13:04;;;;;;;19.55;5.18;;;;;;;13.15;100.00;102191.09;5245455;28;20486;-71
2022/07/22 00:15:35;;;;;;;21.83;5.97;;;;;;;13.10;100.00;102196.06;5259447;28;20050;-71
2022/07/22 00:18:05;;;;;;;11.10;5.07;;;;;;;13.04;100.00;102191.25;5257132;28;20028;-71
2022/07/22 00:20:36;;;;;;;16.83;5.00;;;;;;;13.00;100.00;102191.72;5247735;28;20020;-71
2022/07/22 00:23:07;;;;;;;20.27;6.03;;;;;;;12.93;100.00;102189.63;5266428;28;20056;-70
2022/07/22 00:25:37;;;;;;;18.50;4.82;;;;;;;12.89;100.00;102192.75;5248584;28;20029;-71
2022/07/22 00:28:08;;;;;;;19.00;6.15;;;;;;;12.84;100.00;102189.66;5245354;28;20032;-70
2022/07/22 00:30:38;;;;;;;23.58;6.15;;;;;;;12.81;100.00;102198.06;5244982;28;20028;-71
2022/07/22 00:33:09;;;;;;;17.80;5.32;;;;;;;12.76;100.00;102194.97;5257463;28;20108;-71
2022/07/22 00:35:39;;;;;;;13.15;4.93;;;;;;;12.72;100.00;102191.69;5246007;28;20024;-70
2022/07/22 00:38:10;;;;;;;16.77;4.85;;;;;;;12.67;100.00;102194.84;5245485;28;20073;-70
2022/07/22 00:40:40;;;;;;;13.20;5.00;;;;;;;12.62;100.00;102186.34;5258653;28;20406;-70
2022/07/22 00:43:11;;;;;;;14.80;4.40;;;;;;;12.58;100.00;102193.00;5245632;28;20074;-71
2022/07/22 00:45:42;;;;;;;15.27;4.82;;;;;;;12.54;100.00;102190.75;5264686;28;20054;-70
2022/07/22 00:48:12;;;;;;;17.45;5.38;;;;;;;12.49;100.00;102195.72;5252157;28;20093;-71
2022/07/22 00:50:45;;;;;;;16.45;5.18;;;;;;;12.45;100.00;102189.81;5265894;28;20107;-70
2022/07/22 00:53:15;;;;;;;19.65;6.18;;;;;;;12.41;100.00;102183.88;5262459;28;20061;-71
2022/07/22 00:55:46;;;;;;;15.25;4.70;;;;;;;12.40;100.00;102184.03;5251191;28;20040;-70
2022/07/22 00:58:16;;;;;;;11.80;3.55;;;;;;;12.36;100.00;102185.31;5249159;28;20051;-70
2022/07/22 01:00:47;;;;;;;10.07;3.65;;;;;;;12.32;100.00;102178.50;5266103;28;20035;-70
2022/07/22 01:03:17;;;;;;;9.05;3.95;;;;;;;12.27;100.00;102186.16;5253163;28;20031;-70
2022/07/22 01:05:48;;;;;;;13.25;4.57;;;;;;;12.25;100.00;102182.75;5236798;28;20025;-71
2022/07/22 01:08:19;;;;;;;13.40;4.45;;;;;;;12.22;100.00;102181.22;5265753;28;20461;-70
2022/07/22 01:10:50;;;;;;;16.08;4.30;;;;;;;12.16;100.00;102179.13;5266011;28;20024;-70
2022/07/22 01:13:20;;;;;;;15.43;4.45;;;;;;;12.13;100.00;102174.00;5265960;28;20028;-70
2022/07/22 01:15:51;;;;;;;12.30;4.15;;;;;;;12.09;100.00;102175.28;5262530;28;20436;-71
2022/07/22 01:18:22;;;;;;;13.60;4.30;;;;;;;12.07;100.00;102172.75;5253070;28;20035;-70
2022/07/22 01:20:53;;;;;;;41.47;4.63;;;;;;;12.05;100.00;102181.94;5253139;28;20494;-70
2022/07/22 01:23:24;;;;;;;11.93;2.33;;;;;;;12.01;100.00;102184.09;5244753;28;20021;-70
2022/07/22 01:25:54;;;;;;;25.80;3.60;;;;;;;11.97;100.00;102179.13;5263224;28;20024;-71
2022/07/22 01:28:25;;;;;;;11.27;4.05;;;;;;;11.91;100.00;102181.41;5257649;28;20066;-70
2022/07/22 01:30:55;;;;;;;170.43;9.55;;;;;;;11.86;100.00;102180.13;5245255;28;20100;-70
2022/07/22 01:33:26;;;;;;;37.60;2.63;;;;;;;11.80;100.00;102180.69;5244422;28;20032;-70
2022/07/22 01:35:57;;;;;;;15.15;2.47;;;;;;;11.73;100.00;102179.53;5252667;28;20020;-71
2022/07/22 01:38:27;;;;;;;9.57;3.30;;;;;;;11.68;100.00;102180.78;5263466;28;20020;-70
2022/07/22 01:40:59;;;;;;;15.05;4.30;;;;;;;11.67;100.00;102179.09;5254143;28;20031;-71
2022/07/22 01:43:29;;;;;;;10.52;4.45;;;;;;;11.68;100.00;102171.88;5247896;28;20028;-70
2022/07/22 01:46:08;;;;;;;8.27;3.10;;;;;;;11.67;100.00;102160.28;5255813;28;20047;-70
2022/07/22 01:48:40;;;;;;;4.55;1.50;;;;;;;11.64;100.00;102171.31;5238844;28;20035;-71
2022/07/22 01:51:11;;;;;;;12.27;1.10;;;;;;;11.59;100.00;102168.19;5252004;28;20032;-70
2022/07/22 01:53:42;;;;;;;29.45;1.95;;;;;;;11.56;100.00;102170.34;5261386;28;20028;-71
2022/07/22 01:56:12;;;;;;;30.83;3.53;;;;;;;11.53;100.00;102165.22;5260247;28;20099;-71
2022/07/22 01:58:43;;;;;;;8.13;3.38;;;;;;;11.50;100.00;102157.47;5269261;28;20051;-70
2022/07/22 02:01:14;;;;;;;10.32;4.32;;;;;;;11.49;100.00;102159.28;5269300;28;20076;-71
2022/07/22 02:03:44;;;;;;;6.55;2.88;;;;;;;11.49;100.00;102153.91;5258628;28;20025;-71
2022/07/22 02:06:15;;;;;;;77.60;4.50;;;;;;;11.47;100.00;102147.84;5265637;28;20024;-71
2022/07/22 02:08:46;;;;;;;96.85;4.72;;;;;;;11.43;100.00;102148.25;5269097;28;20020;-70
2022/07/22 02:11:17;;;;;;;91.78;4.13;;;;;;;11.34;100.00;102149.94;5263797;28;20466;-71
2022/07/22 02:13:48;;;;;;;8.45;1.70;;;;;;;11.29;100.00;102146.81;5260398;28;20032;-70
2022/07/22 02:16:18;;;;;;;6.95;3.20;;;;;;;11.27;100.00;102149.66;5254780;28;20020;-70
2022/07/22 02:18:50;;;;;;;5.65;2.55;;;;;;;11.28;100.00;102137.91;5268530;28;20435;-71
2022/07/22 02:21:21;;;;;;;5.40;2.22;;;;;;;11.29;100.00;102131.53;5252342;28;20028;-71
2022/07/22 02:23:51;;;;;;;9.82;2.83;;;;;;;11.32;100.00;102133.97;5261406;28;20077;-70
2022/07/22 02:26:21;;;;;;;10.35;3.85;;;;;;;11.34;100.00;102137.34;5253710;28;20069;-71
2022/07/22 02:28:53;;;;;;;8.48;3.22;;;;;;;11.35;100.00;102127.47;5261322;28;20028;-71
2022/07/22 02:31:24;;;;;;;16.80;4.00;;;;;;;11.34;100.00;102123.06;5258568;28;20460;-70
2022/07/22 02:33:54;;;;;;;10.15;3.60;;;;;;;11.33;100.00;102145.56;5268523;28;20032;-70
2022/07/22 02:36:25;;;;;;;15.60;4.38;;;;;;;11.30;100.00;102148.53;5256399;28;20023;-71
2022/07/22 02:38:56;;;;;;;6.30;2.28;;;;;;;11.24;100.00;102157.13;5260929;28;20070;-71
2022/07/22 02:41:26;;;;;;;7.88;2.47;;;;;;;11.14;100.00;102139.19;5261077;28;20020;-70
2022/07/22 02:43:57;;;;;;;9.15;3.28;;;;;;;11.09;100.00;102144.13;5267612;28;20020;-70
2022/07/22 02:46:29;;;;;;;9.18;4.32;;;;;;;11.06;100.00;102139.00;5267474;28;20238;-70
2022/07/22 02:48:59;;;;;;;10.52;4.25;;;;;;;11.07;100.00;102137.16;5268316;28;20019;-70
2022/07/22 02:51:30;;;;;;;141.30;8.77;;;;;;;11.08;100.00;102134.34;5266426;28;20026;-70
2022/07/22 02:54:01;;;;;;;44.72;4.13;;;;;;;11.06;100.00;102127.41;5247094;28;20478;-71
2022/07/22 02:56:31;;;;;;;18.50;3.40;;;;;;;11.03;100.00;102141.97;5249705;28;20028;-71
2022/07/22 02:59:02;;;;;;;35.17;3.38;;;;;;;11.00;100.00;102142.25;5257607;28;20031;-70
2022/07/22 03:01:32;;;;;;;13.85;1.60;;;;;;;10.95;100.00;102140.97;5265210;28;20032;-70
2022/07/22 03:04:03;;;;;;;6.15;0.70;;;;;;;10.91;100.00;102140.38;5242530;28;20031;-70
2022/07/22 03:06:34;;;;;;;6.43;1.70;;;;;;;10.86;100.00;102143.47;5259328;28;20206;-71
2022/07/22 03:09:04;;;;;;;8.20;2.70;;;;;;;10.84;100.00;102145.47;5260050;28;20067;-71
2022/07/22 03:11:35;;;;;;;10.10;3.47;;;;;;;10.86;100.00;102145.31;5267946;28;20043;-70
2022/07/22 03:14:05;;;;;;;14.15;4.65;;;;;;;10.90;100.00;102154.81;5251485;28;20031;-70
2022/07/22 03:16:36;;;;;;;10.82;4.88;;;;;;;10.88;100.00;102154.91;5246987;28;20078;-71
2022/07/22 03:19:06;;;;;;;17.73;6.22;;;;;;;10.86;100.00;102153.38;5249417;28;20023;-70
2022/07/22 03:21:37;;;;;;;11.82;5.47;;;;;;;10.83;100.00;102156.31;5259359;28;20039;-70
2022/07/22 03:24:07;;;;;;;14.00;5.65;;;;;;;10.82;100.00;102147.41;5249329;28;20490;-70
2022/07/22 03:26:38;;;;;;;11.88;4.82;;;;;;;10.81;100.00;102153.78;5253112;28;20024;-70
2022/07/22 03:29:09;;;;;;;8.98;4.32;;;;;;;10.81;100.00;102150.25;5259854;28;20020;-70
2022/07/22 03:31:39;;;;;;;58.35;5.30;;;;;;;10.78;100.00;102155.88;5246660;28;20027;-71
2022/07/22 03:34:10;;;;;;;85.90;5.47;;;;;;;10.74;100.00;102152.59;5266535;28;20050;-70
2022/07/22 03:36:40;;;;;;;109.43;6.20;;;;;;;10.69;100.00;102160.22;5253035;28;20021;-71
2022/07/22 03:39:11;;;;;;;22.63;1.70;;;;;;;10.63;100.00;102158.91;5254659;28;20032;-70
2022/07/22 03:41:42;;;;;;;8.63;3.40;;;;;;;10.58;100.00;102149.56;5264924;28;20039;-71
2022/07/22 03:44:12;;;;;;;8.13;3.63;;;;;;;10.55;100.00;102134.59;5254872;28;20023;-70
2022/07/22 03:46:43;;;;;;;20.83;5.72;;;;;;;10.55;100.00;102139.97;5250795;28;20028;-71
2022/07/22 03:49:14;;;;;;;17.55;5.57;;;;;;;10.58;100.00;102134.31;5246198;28;20147;-71
2022/07/22 03:51:44;;;;;;;18.10;4.97;;;;;;;10.61;100.00;102134.06;5264855;28;20469;-71
2022/07/22 03:54:15;;;;;;;8.45;3.28;;;;;;;10.65;100.00;102144.53;5253938;28;20512;-70
2022/07/22 03:56:45;;;;;;;103.07;5.90;;;;;;;10.62;100.00;102143.81;5259514;28;20032;-70
2022/07/22 03:59:16;;;;;;;54.72;3.70;;;;;;;10.59;100.00;102143.22;5266872;28;20106;-70
2022/07/22 04:01:47;;;;;;;27.63;2.38;;;;;;;10.56;100.00;102147.03;5267078;28;20385;-70
2022/07/22 04:04:17;;;;;;;9.95;2.70;;;;;;;10.55;100.00;102147.19;5252001;28;20017;-71
2022/07/22 04:06:51;;;;;;;37.17;4.93;;;;;;;10.55;100.00;102150.72;5266971;28;20027;-70
2022/07/22 04:09:21;;;;;;;6.63;2.80;;;;;;;10.57;100.00;102153.25;5266459;28;20039;-70
2022/07/22 04:11:52;;;;;;;14.43;4.90;;;;;;;10.58;100.00;102150.41;5256581;28;20134;-71
2022/07/22 04:14:23;;;;;;;7.22;3.47;;;;;;;10.63;100.00;102148.19;5258395;28;20121;-70
2022/07/22 04:16:53;;;;;;;14.60;4.93;;;;;;;10.67;100.00;102161.34;5256904;28;20102;-71
2022/07/22 04:19:24;;;;;;;14.70;3.08;;;;;;;10.68;100.00;102153.16;5261035;28;20027;-71
2022/07/22 04:21:54;;;;;;;14.30;4.25;;;;;;;10.70;100.00;102147.66;5245766;28;20024;-71
2022/07/22 04:24:25;;;;;;;13.90;4.28;;;;;;;10.72;100.00;102140.31;5258315;28;20017;-70
2022/07/22 04:26:56;;;;;;;8.25;3.22;;;;;;;10.75;100.00;102140.06;5251295;28;20470;-70
2022/07/22 04:29:26;;;;;;;6.43;3.25;;;;;;;10.80;100.00;102135.13;5253296;28;20030;-70
2022/07/22 04:31:57;;;;;;;17.67;3.92;;;;;;;10.84;100.00;102129.34;5266207;28;20367;-71
2022/07/22 04:34:27;;;;;;;12.93;4.07;;;;;;;10.92;100.00;102130.50;5265684;28;20358;-70
2022/07/22 04:36:58;;;;;;;11.80;4.75;;;;;;;10.97;100.00;102128.25;5251446;28;20028;-70
2022/07/22 04:39:28;;;;;;;13.30;5.20;;;;;;;11.01;100.00;102125.16;5256255;28;20024;-70
2022/07/22 04:41:59;;;;;;;13.30;4.53;;;;;;;11.06;100.00;102114.84;5244797;28;20386;-71
2022/07/22 04:44:29;;;;;;;9.70;3.60;;;;;;;11.11;100.00;102123.31;5255216;28;20016;-70
2022/07/22 04:47:00;;;;;;;14.93;4.22;;;;;;;11.18;100.00;102112.03;5265857;28;20092;-70
2022/07/22 04:49:30;;;;;;;13.68;4.20;;;;;;;11.24;100.00;102123.03;5266119;28;20051;-71
2022/07/22 04:52:01;;;;;;;11.10;5.15;;;;;;;11.30;100.00;102118.97;5246986;28;20097;-70
2022/07/22 04:54:31;;;;;;;14.07;5.20;;;;;;;11.36;100.00;102121.09;5244670;28;20024;-71
2022/07/22 04:57:02;;;;;;;12.52;4.03;;;;;;;11.41;100.00;102118.84;5251318;28;20531;-70
2022/07/22 04:59:32;;;;;;;14.55;5.10;;;;;;;11.47;100.00;102122.81;5265647;28;20061;-71
2022/07/22 05:02:03;;;;;;;14.85;5.60;;;;;;;11.54;100.00;102113.16;5265969;28;20024;-70
2022/07/22 05:04:34;;;;;;;16.52;5.47;;;;;;;11.64;100.00;102122.91;5238289;28;20024;-71
2022/07/22 05:07:05;;;;;;;17.13;5.43;;;;;;;11.74;100.00;102111.31;5265869;28;20020;-70
2022/07/22 05:09:35;;;;;;;19.25;5.93;;;;;;;11.83;100.00;102108.66;5245955;28;20490;-71
2022/07/22 05:12:06;;;;;;;24.33;6.85;;;;;;;11.90;100.00;102127.78;5244433;28;20029;-71
2022/07/22 05:14:37;;;;;;;22.45;7.18;;;;;;;11.97;100.00;102114.59;5244200;28;20040;-71
2022/07/22 05:17:10;;;;;;;23.45;8.20;;;;;;;12.04;100.00;102111.16;5258288;28;20401;-70
2022/07/22 05:19:41;;;;;;;16.73;6.13;;;;;;;12.13;100.00;102112.97;5236926;28;20024;-71
2022/07/22 05:22:12;;;;;;;18.63;5.95;;;;;;;12.24;100.00;102120.03;5259772;28;20375;-70
2022/07/22 05:24:42;;;;;;;20.80;8.68;;;;;;;12.34;100.00;102122.69;5265338;28;20016;-70
2022/07/22 05:27:13;;;;;;;19.52;7.85;;;;;;;12.44;100.00;102115.44;5252589;28;20573;-70
2022/07/22 05:29:43;;;;;;;25.33;9.00;;;;;;;12.57;100.00;102115.09;5255642;28;20040;-71
2022/07/22 05:32:15;;;;;;;24.50;8.02;;;;;;;12.70;100.00;102111.09;5265290;28;20027;-71
2022/07/22 05:34:45;;;;;;;24.13;9.52;;;;;;;12.87;100.00;102109.41;5269305;28;20024;-71
2022/07/22 05:37:16;;;;;;;27.48;8.65;;;;;;;13.04;100.00;102106.91;5270388;28;20031;-71
2022/07/22 05:39:46;;;;;;;42.55;11.73;;;;;;;13.19;100.00;102100.00;5257026;28;20017;-71
2022/07/22 05:42:17;;;;;;;33.95;11.10;;;;;;;13.37;100.00;102102.75;5254988;28;20035;-71
2022/07/22 05:44:47;;;;;;;22.42;10.60;;;;;;;13.54;100.00;102107.25;5255440;28;20052;-71
2022/07/22 05:47:17;;;;;;;28.02;10.93;;;;;;;13.68;100.00;102114.81;5255972;28;20016;-71
2022/07/22 05:49:48;;;;;;;25.00;10.18;;;;;;;13.91;100.00;102114.31;5267962;28;20370;-71
2022/07/22 05:52:18;;;;;;;30.35;11.15;;;;;;;14.02;100.00;102114.06;5248649;28;20033;-71
2022/07/22 05:54:49;;;;;;;26.80;10.90;;;;;;;14.15;100.00;102114.47;5261800;28;20016;-71
2022/07/22 05:57:19;;;;;;;33.00;11.68;;;;;;;14.28;100.00;102116.75;5257855;28;20076;-70
2022/07/22 05:59:50;;;;;;;33.50;11.43;;;;;;;14.48;100.00;102120.09;5255406;28;20024;-71
2022/07/22 06:02:20;;;;;;;23.67;11.70;;;;;;;14.73;100.00;102112.97;5258804;28;20098;-71
2022/07/22 06:04:51;;;;;;;35.83;11.90;;;;;;;15.16;100.00;102113.75;5253640;28;20484;-71
2022/07/22 06:07:21;;;;;;;25.45;11.18;;;;;;;15.88;100.00;102114.03;5255456;28;20025;-71
2022/07/22 06:09:52;;;;;;;24.00;10.95;;;;;;;16.67;100.00;102121.28;5261692;28;20111;-72
2022/07/22 06:12:23;;;;;;;27.20;10.88;;;;;;;17.20;100.00;102116.13;5262758;28;20039;-71
2022/07/22 06:14:53;;;;;;;19.17;9.48;;;;;;;18.02;100.00;102116.34;5268600;28;20032;-71
2022/07/22 06:17:24;;;;;;;20.08;8.52;;;;;;;18.75;100.00;102101.13;5252552;28;20053;-72
2022/07/22 06:19:54;;;;;;;14.43;6.97;;;;;;;19.59;100.00;102102.28;5253679;28;20736;-71
2022/07/22 06:22:25;;;;;;;17.67;7.93;;;;;;;19.90;100.00;102091.03;5261083;28;20028;-71
2022/07/22 06:24:55;;;;;;;14.68;8.25;;;;;;;20.17;100.00;102094.78;5258781;28;20035;-71
2022/07/22 06:27:26;;;;;;;20.90;8.13;;;;;;;20.62;100.00;102097.16;5261746;28;20032;-71
2022/07/22 06:29:56;;;;;;;13.85;7.82;;;;;;;20.92;100.00;102106.72;5268819;28;20035;-72
2022/07/22 06:32:27;;;;;;;17.92;7.32;;;;;;;21.09;100.00;102107.22;5262367;28;20112;-71
2022/07/22 06:34:57;;;;;;;18.60;7.97;;;;;;;21.27;100.00;102109.34;5260434;28;20031;-72
2022/07/22 06:37:28;;;;;;;17.63;7.50;;;;;;;21.40;100.00;102109.41;5247743;28;20056;-71
2022/07/22 06:39:58;;;;;;;14.55;6.57;;;;;;;21.53;100.00;102114.03;5260919;28;20031;-71
2022/07/22 06:42:29;;;;;;;16.23;6.00;;;;;;;21.82;100.00;102115.53;5256392;28;20050;-71
2022/07/22 06:44:59;;;;;;;13.48;6.07;;;;;;;21.79;100.00;102113.22;5254451;28;20024;-71
2022/07/22 06:47:31;;;;;;;10.50;6.13;;;;;;;21.95;100.00;102112.81;5258481;28;20089;-72
2022/07/22 06:50:04;;;;;;;20.33;5.90;;;;;;;22.40;100.00;102117.59;5247436;28;20023;-72
2022/07/22 06:52:38;;;;;;;9.90;4.70;;;;;;;22.48;100.00;102110.00;5259453;28;20363;-72
2022/07/22 06:55:09;;;;;;;13.57;4.13;;;;;;;22.93;100.00;102112.78;5247553;28;20406;-71
2022/07/22 06:57:40;;;;;;;8.55;4.00;;;;;;;23.05;100.00;102109.41;5247296;28;20047;-71
2022/07/22 07:00:11;;;;;;;7.32;4.15;;;;;;;23.15;100.00;102102.38;5267899;28;20540;-71
2022/07/22 07:02:42;;;;;;;9.80;4.47;;;;;;;23.11;100.00;102100.31;5266538;28;20462;-71
2022/07/22 07:05:12;;;;;;;9.00;4.10;;;;;;;23.16;100.00;102098.59;5246904;28;20031;-71
2022/07/22 07:07:43;;;;;;;10.52;4.32;;;;;;;23.28;100.00;102095.97;5246988;28;20025;-71
2022/07/22 07:10:15;;;;;;;9.98;3.95;;;;;;;23.23;100.00;102102.09;5246724;28;20029;-71
2022/07/22 07:12:45;;;;;;;8.05;3.78;;;;;;;23.29;100.00;102103.13;5264144;28;20035;-72
2022/07/22 07:15:16;;;;;;;8.27;3.25;;;;;;;23.57;100.00;102110.94;5256169;28;20032;-71
2022/07/22 07:17:46;;;;;;;8.18;3.42;;;;;;;23.88;100.00;102090.91;5265716;28;20031;-71
2022/07/22 07:20:17;;;;;;;5.53;3.22;;;;;;;24.07;100.00;102094.53;5254909;28;20056;-71
2022/07/22 07:22:48;;;;;;;5.03;2.83;;;;;;;23.92;100.00;102091.28;5266697;28;20027;-71
2022/07/22 07:25:19;;;;;;;5.38;2.45;;;;;;;23.71;100.00;102100.75;5266212;28;20392;-71
2022/07/22 07:27:50;;;;;;;9.77;3.10;;;;;;;23.33;100.00;102093.41;5246674;28;20024;-72
2022/07/22 07:30:21;;;;;;;8.10;3.13;;;;;;;22.72;100.00;102093.94;5248587;28;20104;-71
2022/07/22 07:32:51;;;;;;;7.40;3.40;;;;;;;22.00;100.00;102082.13;5258892;28;20052;-71
2022/07/22 07:35:22;;;;;;;9.32;2.92;;;;;;;21.59;100.00;102094.09;5262746;28;20059;-71
2022/07/22 07:37:53;;;;;;;10.45;3.42;;;;;;;21.09;100.00;102081.81;5267048;28;20028;-71
2022/07/22 07:40:24;;;;;;;8.10;3.15;;;;;;;20.98;100.00;102079.66;5262053;28;20747;-72
2022/07/22 07:42:54;;;;;;;6.80;3.00;;;;;;;20.99;100.00;102086.84;5257916;28;20055;-71
2022/07/22 07:45:25;;;;;;;7.18;3.60;;;;;;;20.89;100.00;102085.31;5261093;28;20050;-71
2022/07/22 07:47:55;;;;;;;9.73;3.85;;;;;;;20.93;100.00;102085.72;5258645;28;20030;-71
2022/07/22 07:50:26;;;;;;;11.02;4.85;;;;;;;21.05;100.00;102072.38;5267029;28;20020;-71
2022/07/22 07:52:57;;;;;;;7.55;3.80;;;;;;;21.43;100.00;102076.22;5253488;28;20024;-71
2022/07/22 07:55:27;;;;;;;8.05;4.35;;;;;;;22.12;100.00;102085.06;5264913;28;20082;-71
2022/07/22 07:57:58;;;;;;;10.95;4.93;;;;;;;22.85;100.00;102093.88;5247712;28;20020;-71
2022/07/22 08:00:32;;;;;;;6.47;3.95;;;;;;;23.03;100.00;102087.69;5266672;28;20106;-71
2022/07/22 08:03:03;;;;;;;11.65;4.45;;;;;;;22.86;100.00;102087.34;5258317;28;20029;-71
2022/07/22 08:05:34;;;;;;;8.75;4.28;;;;;;;22.63;100.00;102092.50;5236345;28;20399;-71
2022/07/22 08:08:05;;;;;;;9.88;4.68;;;;;;;22.23;100.00;102087.13;5250792;28;20035;-71
2022/07/22 08:10:36;;;;;;;19.40;5.13;;;;;;;21.70;100.00;102077.09;5266579;28;20028;-71
2022/07/22 08:13:06;;;;;;;13.57;4.53;;;;;;;21.25;100.00;102088.78;5258991;28;20035;-71
2022/07/22 08:15:37;;;;;;;20.73;5.30;;;;;;;21.17;100.00;102087.91;5245437;28;20063;-72
2022/07/22 08:18:07;;;;;;;8.95;4.18;;;;;;;21.08;100.00;102078.22;5254085;28;20020;-71
2022/07/22 08:20:38;;;;;;;8.90;4.32;;;;;;;21.07;100.00;102090.19;5255807;28;20421;-71
2022/07/22 08:23:08;;;;;;;12.00;4.63;;;;;;;21.05;100.00;102083.28;5245812;28;20019;-72
2022/07/22 08:25:39;;;;;;;8.57;4.05;;;;;;;20.96;100.00;102079.88;5248275;28;20020;-71
2022/07/22 08:28:09;;;;;;;14.18;4.75;;;;;;;20.83;100.00;102077.94;5248127;28;20028;-71
2022/07/22 08:30:40;;;;;;;12.73;4.10;;;;;;;20.57;100.00;102075.13;5263815;28;20028;-71
2022/07/22 08:33:11;;;;;;;13.38;4.78;;;;;;;20.50;100.00;102072.38;5266374;28;20032;-72
2022/07/22 08:35:41;;;;;;;14.07;3.80;;;;;;;20.63;100.00;102063.38;5265518;28;20028;-71
2022/07/22 08:38:12;;;;;;;11.18;5.03;;;;;;;20.72;100.00;102064.06;5264602;28;20077;-71
2022/07/22 08:40:43;;;;;;;11.50;4.80;;;;;;;21.10;100.00;102059.78;5231869;28;20029;-71
2022/07/22 08:43:13;;;;;;;11.30;5.03;;;;;;;21.59;100.00;102055.03;5245165;28;20028;-71
2022/07/22 08:45:44;;;;;;;10.60;4.38;;;;;;;21.94;100.00;102051.03;5253481;28;20441;-71
2022/07/22 08:48:15;;;;;;;10.93;4.13;;;;;;;22.11;100.00;102064.25;5249498;28;20111;-71
2022/07/22 08:50:45;;;;;;;8.60;4.20;;;;;;;22.18;100.00;102059.59;5245109;28;20027;-71
2022/07/22 08:53:16;;;;;;;10.50;4.45;;;;;;;22.26;100.00;102064.84;5248572;28;20082;-71
2022/07/22 08:55:48;;;;;;;8.23;4.40;;;;;;;22.45;100.00;102060.38;5261687;28;20543;-71
2022/07/22 08:58:18;;;;;;;10.27;4.15;;;;;;;22.68;100.00;102068.91;5258722;28;20029;-71
2022/07/22 09:01:04;;;;;;;15.85;5.07;;;;;;;22.47;100.00;102061.84;5244641;28;20409;-71
2022/07/22 09:03:44;;;;;;;9.63;4.90;;;;;;;22.27;100.00;102061.06;5233020;28;20059;-71
2022/07/22 09:06:17;;;;;;;14.13;4.97;;;;;;;22.77;100.00;102061.28;5247614;28;20077;-72
2022/07/22 09:08:51;;;;;;;12.48;4.75;;;;;;;23.19;100.00;102050.75;5265518;28;20024;-71
2022/07/22 09:11:24;;;;;;;8.32;4.80;;;;;;;22.89;100.00;102045.03;5251872;28;20031;-71
2022/07/22 09:13:55;;;;;;;7.50;4.22;;;;;;;23.10;100.00;102043.88;5251993;28;20402;-71
2022/07/22 09:16:47;;;;;;;9.38;4.47;;;;;;;22.87;100.00;102039.78;5244387;28;20036;-71
2022/07/22 09:19:31;;;;;;;8.43;4.65;;;;;;;22.72;100.00;102045.53;5248938;28;20032;-71
2022/07/22 09:22:02;;;;;;;7.93;4.55;;;;;;;22.74;100.00;102051.63;5240195;28;20036;-72
2022/07/22 09:24:34;;;;;;;7.82;4.20;;;;;;;23.21;100.00;102046.75;5238825;28;20016;-72
2022/07/22 09:27:06;;;;;;;6.88;3.85;;;;;;;23.71;100.00;102049.53;5256401;28;20028;-71
2022/07/22 09:29:36;;;;;;;11.98;4.47;;;;;;;24.18;100.00;102058.13;5254119;28;20020;-71
2022/07/22 09:32:07;;;;;;;8.95;4.60;;;;;;;24.90;100.00;102061.09;5248192;28;20077;-71
2022/07/22 09:34:37;;;;;;;9.75;4.78;;;;;;;25.29;100.00;102045.09;5244103;28;20477;-72
2022/07/22 09:37:08;;;;;;;9.68;4.43;;;;;;;25.63;92.84;102054.47;5262447;28;20031;-71
2022/07/22 09:39:38;;;;;;;10.43;3.88;;;;;;;25.66;90.85;102045.78;5253345;28;20115;-71
2022/07/22 09:42:09;;;;;;;8.50;3.92;;;;;;;26.05;92.50;102052.47;5257981;28;20052;-72
2022/07/22 09:44:39;;;;;;;7.30;3.42;;;;;;;26.48;83.15;102054.00;5257458;28;20012;-72
2022/07/22 09:47:30;;;;;;;8.93;4.47;;;;;;;26.38;84.86;102055.66;5245126;28;20013;-72
2022/07/22 09:50:00;;;;;;;8.70;4.47;;;;;;;26.11;84.19;102047.94;5262341;28;20028;-71
2022/07/22 09:52:31;;;;;;;8.13;4.15;;;;;;;26.19;85.86;102049.47;5253979;28;20028;-72
2022/07/22 09:55:02;;;;;;;10.00;4.88;;;;;;;25.86;93.45;102044.63;5262428;28;20081;-70
2022/07/22 09:57:32;;;;;;;6.70;4.13;;;;;;;25.38;98.64;102048.34;5247333;28;20122;-70
2022/07/22 10:00:06;;;;;;;8.63;4.55;;;;;;;25.09;92.06;102041.84;5264471;28;20035;-71
2022/07/22 10:02:44;;;;;;;8.63;3.80;;;;;;;24.92;99.04;102036.97;5250302;28;20095;-70
2022/07/22 10:05:19;;;;;;;11.88;4.80;;;;;;;24.65;90.38;102049.38;5240947;28;20419;-70
2022/07/22 10:07:51;;;;;;;8.18;4.15;;;;;;;24.33;97.50;102059.66;5261130;28;20024;-70
2022/07/22 10:10:27;;;;;;;13.60;4.18;;;;;;;24.22;97.78;102051.13;5255961;28;20028;-70
2022/07/22 10:12:59;;;;;;;12.65;4.32;;;;;;;24.00;97.12;102050.75;5251473;28;20028;-70
2022/07/22 10:15:31;;;;;;;8.45;4.47;;;;;;;23.44;100.00;102043.41;5251000;28;20020;-72
2022/07/22 10:18:06;;;;;;;6.15;3.70;;;;;;;23.43;100.00;102041.72;5245432;28;20477;-72
2022/07/22 10:20:37;;;;;;;7.75;4.18;;;;;;;23.37;100.00;102039.88;5250462;28;20024;-70
2022/07/22 10:23:09;;;;;;;7.80;4.13;;;;;;;22.97;100.00;102036.59;5269072;28;20197;-69
2022/07/22 10:25:54;;;;;;;8.65;4.10;;;;;;;23.15;100.00;102036.69;5264380;28;20025;-72
2022/07/22 10:28:27;;;;;;;17.55;4.80;;;;;;;23.50;100.00;102025.25;5260973;28;20024;-71
2022/07/22 10:31:35;;;;;;;11.10;4.60;;;;;;;22.90;100.00;102027.59;5261050;28;20032;-70
2022/07/22 10:34:06;;;;;;;9.95;4.68;;;;;;;22.95;100.00;102030.50;5254305;28;20438;-72
2022/07/22 10:36:42;;;;;;;11.27;4.22;;;;;;;23.11;100.00;102018.19;5267563;28;20118;-71
2022/07/22 10:39:13;;;;;;;9.65;3.90;;;;;;;23.30;100.00;102019.94;5268824;28;20062;-71
2022/07/22 10:41:45;;;;;;;8.25;3.95;;;;;;;23.57;100.00;102022.47;5266089;28;20036;-71
2022/07/22 10:44:47;;;;;;;12.00;4.68;;;;;;;23.93;100.00;102010.75;5256425;28;20099;-72
2022/07/22 10:47:55;;;;;;;6.93;4.10;;;;;;;24.48;100.00;102010.78;5235975;28;20025;-71
2022/07/22 10:50:47;;;;;;;10.23;5.05;;;;;;;25.03;100.00;102011.47;5242531;28;20036;-71
2022/07/22 10:53:21;;;;;;;9.40;5.07;;;;;;;24.88;94.27;102013.81;5254171;28;20020;-71
2022/07/22 10:56:06;;;;;;;8.33;4.10;;;;;;;24.95;93.42;102009.06;5255226;28;20016;-71
2022/07/22 10:58:36;;;;;;;9.65;4.20;;;;;;;24.93;92.11;102005.72;5235069;28;20399;-71
2022/07/22 11:01:09;;;;;;;7.03;3.90;;;;;;;24.83;92.60;101999.94;5249273;28;20545;-71
2022/07/22 11:03:42;;;;;;;9.38;4.40;;;;;;;24.66;96.85;101996.19;5258302;28;20036;-71
2022/07/22 11:06:13;;;;;;;10.40;4.43;;;;;;;24.72;98.56;101993.34;5249622;28;20051;-71
2022/07/22 11:08:46;;;;;;;12.90;4.90;;;;;;;24.72;91.07;101984.28;5268137;28;20039;-71
2022/07/22 11:11:18;;;;;;;12.10;4.65;;;;;;;24.79;89.08;101972.13;5268237;28;20381;-71
2022/07/22 11:13:48;;;;;;;6.32;3.92;;;;;;;25.04;96.53;101973.88;5267844;28;20543;-71
2022/07/22 11:16:21;;;;;;;8.30;4.90;;;;;;;25.25;100.00;101970.63;5246686;28;20024;-71
2022/07/22 11:18:58;;;;;;;9.75;4.80;;;;;;;25.50;100.00;101964.91;5246964;28;20383;-71
2022/07/22 11:21:31;;;;;;;10.80;4.88;;;;;;;25.50;95.37;101956.66;5246487;28;20095;-71
2022/07/22 11:24:04;;;;;;;8.05;4.28;;;;;;;25.49;95.25;101960.47;5260131;28;20021;-71
2022/07/22 11:26:41;;;;;;;10.75;4.80;;;;;;;25.14;92.51;101956.84;5246139;28;20025;-71
2022/07/22 11:29:33;;;;;;;10.45;4.40;;;;;;;25.03;94.26;101951.06;5259219;28;20378;-71
2022/07/22 11:32:06;;;;;;;7.65;4.50;;;;;;;25.07;96.18;101939.66;5262653;28;20401;-71